sensor_id;sensor_type;location;lat;lon;timestamp;temperature;humidity
3752;DHT22;50827;47.014;7.652;2023-03-01T00:01:01;1.80;99.90
3752;DHT22;50827;47.014;7.652;2023-03-01T00:03:28;1.80;99.90
3752;DHT22;50827;47.014;7.652;2023-03-01T00:05:54;1.80;99.90
3752;DHT22;50827;47.014;7.652;2023-03-01T00:08:21;1.80;99.90
3752;DHT22;50827;47.014;7.652;2023-03-01T00:10:48;1.80;99.90
3752;DHT22;50827;47.014;7.652;2023-03-01T00:13:15;1.70;99.90
3752;DHT22;50827;47.014;7.652;2023-03-01T00:15:41;1.70;99.90
3752;DHT22;50827;47.014;7.652;2023-03-01T00:18:08;1.70;99.90
3752;DHT22;50827;47.014;7.652;2023-03-01T00:20:34;1.70;99.90
3752;DHT22;50827;47.014;7.652;2023-03-01T00:23:01;1.70;99.90
3752;DHT22;50827;47.014;7.652;2023-03-01T00:25:28;1.70;99.90
3752;DHT22;50827;47.014;7.652;2023-03-01T00:27:55;1.70;99.90
3752;DHT22;50827;47.014;7.652;2023-03-01T00:30:21;1.70;99.90
3752;DHT22;50827;47.014;7.652;2023-03-01T00:32:48;1.70;99.90
3752;DHT22;50827;47.014;7.652;2023-03-01T00:35:15;1.60;99.90
3752;DHT22;50827;47.014;7.652;2023-03-01T00:37:42;1.50;99.90
3752;DHT22;50827;47.014;7.652;2023-03-01T00:40:09;1.40;99.90
3752;DHT22;50827;47.014;7.652;2023-03-01T00:42:36;1.40;99.90
3752;DHT22;50827;47.014;7.652;2023-03-01T00:45:05;1.40;99.90
3752;DHT22;50827;47.014;7.652;2023-03-01T00:47:32;1.40;99.90
3752;DHT22;50827;47.014;7.652;2023-03-01T00:49:58;1.30;99.90
3752;DHT22;50827;47.014;7.652;2023-03-01T00:52:25;1.40;99.90
3752;DHT22;50827;47.014;7.652;2023-03-01T00:54:52;1.40;99.90
3752;DHT22;50827;47.014;7.652;2023-03-01T00:57:19;1.40;99.90
3752;DHT22;50827;47.014;7.652;2023-03-01T00:59:46;1.40;99.90
3752;DHT22;50827;47.014;7.652;2023-03-01T01:02:12;1.40;99.90
3752;DHT22;50827;47.014;7.652;2023-03-01T01:04:39;1.40;99.90
3752;DHT22;50827;47.014;7.652;2023-03-01T01:07:06;1.40;99.90
3752;DHT22;50827;47.014;7.652;2023-03-01T01:09:33;1.50;99.90
3752;DHT22;50827;47.014;7.652;2023-03-01T01:12:00;1.50;99.90
3752;DHT22;50827;47.014;7.652;2023-03-01T01:14:27;1.60;99.90
3752;DHT22;50827;47.014;7.652;2023-03-01T01:16:54;1.60;99.90
3752;DHT22;50827;47.014;7.652;2023-03-01T01:19:21;1.50;99.90
3752;DHT22;50827;47.014;7.652;2023-03-01T01:21:47;1.50;99.90
3752;DHT22;50827;47.014;7.652;2023-03-01T01:24:15;1.50;99.90
3752;DHT22;50827;47.014;7.652;2023-03-01T01:26:42;1.50;99.90
3752;DHT22;50827;47.014;7.652;2023-03-01T01:29:10;1.60;99.90
3752;DHT22;50827;47.014;7.652;2023-03-01T01:31:39;1.60;99.90
3752;DHT22;50827;47.014;7.652;2023-03-01T01:34:08;1.60;99.90
3752;DHT22;50827;47.014;7.652;2023-03-01T01:36:36;1.60;99.90
3752;DHT22;50827;47.014;7.652;2023-03-01T01:39:03;1.70;99.90
3752;DHT22;50827;47.014;7.652;2023-03-01T01:41:30;1.80;99.90
3752;DHT22;50827;47.014;7.652;2023-03-01T01:44:16;1.90;99.90
3752;DHT22;50827;47.014;7.652;2023-03-01T01:49:30;1.90;99.90
3752;DHT22;50827;47.014;7.652;2023-03-01T01:52:25;1.90;99.90
3752;DHT22;50827;47.014;7.652;2023-03-01T01:55:14;1.80;99.90
3752;DHT22;50827;47.014;7.652;2023-03-01T01:57:44;1.70;99.90
3752;DHT22;50827;47.014;7.652;2023-03-01T02:02:41;1.50;99.90
3752;DHT22;50827;47.014;7.652;2023-03-01T02:05:16;1.50;99.90
3752;DHT22;50827;47.014;7.652;2023-03-01T02:07:47;1.50;99.90
3752;DHT22;50827;47.014;7.652;2023-03-01T02:10:15;1.40;99.90
3752;DHT22;50827;47.014;7.652;2023-03-01T02:12:42;1.50;99.90
3752;DHT22;50827;47.014;7.652;2023-03-01T02:15:09;1.40;99.90
3752;DHT22;50827;47.014;7.652;2023-03-01T02:17:37;1.50;99.90
3752;DHT22;50827;47.014;7.652;2023-03-01T02:20:08;1.50;99.90
3752;DHT22;50827;47.014;7.652;2023-03-01T02:22:43;1.50;99.90
3752;DHT22;50827;47.014;7.652;2023-03-01T02:25:27;1.50;99.90
3752;DHT22;50827;47.014;7.652;2023-03-01T02:30:24;1.60;99.90
3752;DHT22;50827;47.014;7.652;2023-03-01T02:32:54;1.60;99.90
3752;DHT22;50827;47.014;7.652;2023-03-01T02:35:32;1.50;99.90
3752;DHT22;50827;47.014;7.652;2023-03-01T02:38:01;1.50;99.90
3752;DHT22;50827;47.014;7.652;2023-03-01T02:40:29;1.50;99.90
3752;DHT22;50827;47.014;7.652;2023-03-01T02:42:58;1.30;99.90
3752;DHT22;50827;47.014;7.652;2023-03-01T02:45:26;1.40;99.90
3752;DHT22;50827;47.014;7.652;2023-03-01T02:47:55;1.40;99.90
3752;DHT22;50827;47.014;7.652;2023-03-01T02:50:31;1.40;99.90
3752;DHT22;50827;47.014;7.652;2023-03-01T02:53:25;1.40;99.90
3752;DHT22;50827;47.014;7.652;2023-03-01T02:55:54;1.50;99.90
3752;DHT22;50827;47.014;7.652;2023-03-01T02:58:21;1.40;99.90
3752;DHT22;50827;47.014;7.652;2023-03-01T03:00:48;1.50;99.90
3752;DHT22;50827;47.014;7.652;2023-03-01T03:03:17;1.40;99.90
3752;DHT22;50827;47.014;7.652;2023-03-01T03:05:45;1.30;99.90
3752;DHT22;50827;47.014;7.652;2023-03-01T03:08:11;1.30;99.90
3752;DHT22;50827;47.014;7.652;2023-03-01T03:10:40;1.40;99.90
3752;DHT22;50827;47.014;7.652;2023-03-01T03:13:10;1.30;99.90
3752;DHT22;50827;47.014;7.652;2023-03-01T03:15:37;1.20;99.90
3752;DHT22;50827;47.014;7.652;2023-03-01T03:18:09;1.20;99.90
3752;DHT22;50827;47.014;7.652;2023-03-01T03:20:36;1.10;99.90
3752;DHT22;50827;47.014;7.652;2023-03-01T03:23:04;1.10;99.90
3752;DHT22;50827;47.014;7.652;2023-03-01T03:25:31;1.10;99.90
3752;DHT22;50827;47.014;7.652;2023-03-01T03:27:58;1.10;99.90
3752;DHT22;50827;47.014;7.652;2023-03-01T03:30:28;1.20;99.90
3752;DHT22;50827;47.014;7.652;2023-03-01T03:32:55;1.30;99.90
3752;DHT22;50827;47.014;7.652;2023-03-01T03:35:31;1.30;99.90
3752;DHT22;50827;47.014;7.652;2023-03-01T03:38:00;1.30;99.90
3752;DHT22;50827;47.014;7.652;2023-03-01T03:40:35;1.30;99.90
3752;DHT22;50827;47.014;7.652;2023-03-01T03:43:03;1.30;99.90
3752;DHT22;50827;47.014;7.652;2023-03-01T03:45:30;1.20;99.90
3752;DHT22;50827;47.014;7.652;2023-03-01T03:48:01;1.20;99.90
3752;DHT22;50827;47.014;7.652;2023-03-01T03:50:28;1.20;99.90
3752;DHT22;50827;47.014;7.652;2023-03-01T03:52:55;1.30;99.90
3752;DHT22;50827;47.014;7.652;2023-03-01T03:55:22;1.30;99.90
3752;DHT22;50827;47.014;7.652;2023-03-01T03:57:48;1.40;99.90
3752;DHT22;50827;47.014;7.652;2023-03-01T04:00:20;1.30;99.90
3752;DHT22;50827;47.014;7.652;2023-03-01T04:02:48;1.30;99.90
3752;DHT22;50827;47.014;7.652;2023-03-01T04:05:16;1.20;99.90
3752;DHT22;50827;47.014;7.652;2023-03-01T04:07:44;1.20;99.90
3752;DHT22;50827;47.014;7.652;2023-03-01T04:10:15;1.20;99.90
3752;DHT22;50827;47.014;7.652;2023-03-01T04:12:42;1.20;99.90
3752;DHT22;50827;47.014;7.652;2023-03-01T04:15:11;1.20;99.90
3752;DHT22;50827;47.014;7.652;2023-03-01T04:17:41;1.30;99.90
3752;DHT22;50827;47.014;7.652;2023-03-01T04:20:14;1.30;99.90
3752;DHT22;50827;47.014;7.652;2023-03-01T04:22:44;1.30;99.90
3752;DHT22;50827;47.014;7.652;2023-03-01T04:25:13;1.40;99.90
3752;DHT22;50827;47.014;7.652;2023-03-01T04:27:40;1.40;99.90
3752;DHT22;50827;47.014;7.652;2023-03-01T04:30:08;1.40;99.90
3752;DHT22;50827;47.014;7.652;2023-03-01T04:32:35;1.50;99.90
3752;DHT22;50827;47.014;7.652;2023-03-01T04:35:02;1.40;99.90
3752;DHT22;50827;47.014;7.652;2023-03-01T04:37:28;1.50;99.90
3752;DHT22;50827;47.014;7.652;2023-03-01T04:39:56;1.50;99.90
3752;DHT22;50827;47.014;7.652;2023-03-01T04:42:22;1.50;99.90
3752;DHT22;50827;47.014;7.652;2023-03-01T04:44:49;1.50;99.90
3752;DHT22;50827;47.014;7.652;2023-03-01T04:47:17;1.50;99.90
3752;DHT22;50827;47.014;7.652;2023-03-01T04:49:44;1.50;99.90
3752;DHT22;50827;47.014;7.652;2023-03-01T04:52:11;1.40;99.90
3752;DHT22;50827;47.014;7.652;2023-03-01T04:54:38;1.40;99.90
3752;DHT22;50827;47.014;7.652;2023-03-01T04:57:04;1.40;99.90
3752;DHT22;50827;47.014;7.652;2023-03-01T04:59:31;1.40;99.90
3752;DHT22;50827;47.014;7.652;2023-03-01T05:01:58;1.40;99.90
3752;DHT22;50827;47.014;7.652;2023-03-01T05:04:26;1.40;99.90
3752;DHT22;50827;47.014;7.652;2023-03-01T05:06:53;1.40;99.90
3752;DHT22;50827;47.014;7.652;2023-03-01T05:09:20;1.50;99.90
3752;DHT22;50827;47.014;7.652;2023-03-01T05:11:46;1.60;99.90
3752;DHT22;50827;47.014;7.652;2023-03-01T05:14:13;1.50;99.90
3752;DHT22;50827;47.014;7.652;2023-03-01T05:16:40;1.50;99.90
3752;DHT22;50827;47.014;7.652;2023-03-01T05:19:07;1.50;99.90
3752;DHT22;50827;47.014;7.652;2023-03-01T05:21:42;1.50;99.90
3752;DHT22;50827;47.014;7.652;2023-03-01T05:24:28;1.40;99.90
3752;DHT22;50827;47.014;7.652;2023-03-01T05:26:55;1.30;99.90
3752;DHT22;50827;47.014;7.652;2023-03-01T05:29:24;1.20;99.90
3752;DHT22;50827;47.014;7.652;2023-03-01T05:31:56;1.40;99.90
3752;DHT22;50827;47.014;7.652;2023-03-01T05:34:25;1.40;99.90
3752;DHT22;50827;47.014;7.652;2023-03-01T05:36:52;1.40;99.90
3752;DHT22;50827;47.014;7.652;2023-03-01T05:39:21;1.40;99.90
3752;DHT22;50827;47.014;7.652;2023-03-01T05:41:58;1.50;99.90
3752;DHT22;50827;47.014;7.652;2023-03-01T05:44:29;1.60;99.90
3752;DHT22;50827;47.014;7.652;2023-03-01T05:46:56;1.50;99.90
3752;DHT22;50827;47.014;7.652;2023-03-01T05:49:23;1.50;99.90
3752;DHT22;50827;47.014;7.652;2023-03-01T05:51:51;1.40;99.90
3752;DHT22;50827;47.014;7.652;2023-03-01T05:54:20;1.40;99.90
3752;DHT22;50827;47.014;7.652;2023-03-01T05:56:46;1.50;99.90
3752;DHT22;50827;47.014;7.652;2023-03-01T05:59:13;1.50;99.90
3752;DHT22;50827;47.014;7.652;2023-03-01T06:01:41;1.30;99.90
3752;DHT22;50827;47.014;7.652;2023-03-01T06:04:08;1.40;99.90
3752;DHT22;50827;47.014;7.652;2023-03-01T06:06:36;1.40;99.90
3752;DHT22;50827;47.014;7.652;2023-03-01T06:09:06;1.40;99.90
3752;DHT22;50827;47.014;7.652;2023-03-01T06:11:35;1.50;99.90
3752;DHT22;50827;47.014;7.652;2023-03-01T06:14:03;1.50;99.90
3752;DHT22;50827;47.014;7.652;2023-03-01T06:16:30;1.50;99.90
3752;DHT22;50827;47.014;7.652;2023-03-01T06:18:57;1.50;99.90
3752;DHT22;50827;47.014;7.652;2023-03-01T06:21:24;1.50;99.90
3752;DHT22;50827;47.014;7.652;2023-03-01T06:23:51;1.50;99.90
3752;DHT22;50827;47.014;7.652;2023-03-01T06:26:18;1.50;99.90
3752;DHT22;50827;47.014;7.652;2023-03-01T06:28:45;1.50;99.90
3752;DHT22;50827;47.014;7.652;2023-03-01T06:31:12;1.50;99.90
3752;DHT22;50827;47.014;7.652;2023-03-01T06:33:39;1.50;99.90
3752;DHT22;50827;47.014;7.652;2023-03-01T06:36:07;1.50;99.90
3752;DHT22;50827;47.014;7.652;2023-03-01T06:38:34;1.50;99.90
3752;DHT22;50827;47.014;7.652;2023-03-01T06:41:01;1.50;99.90
3752;DHT22;50827;47.014;7.652;2023-03-01T06:43:28;1.40;99.90
3752;DHT22;50827;47.014;7.652;2023-03-01T06:45:55;1.40;99.90
3752;DHT22;50827;47.014;7.652;2023-03-01T06:48:22;1.30;99.90
3752;DHT22;50827;47.014;7.652;2023-03-01T06:50:48;1.40;99.90
3752;DHT22;50827;47.014;7.652;2023-03-01T06:53:15;1.30;99.90
3752;DHT22;50827;47.014;7.652;2023-03-01T06:55:42;1.30;99.90
3752;DHT22;50827;47.014;7.652;2023-03-01T06:58:09;1.30;99.90
3752;DHT22;50827;47.014;7.652;2023-03-01T07:00:35;1.30;99.90
3752;DHT22;50827;47.014;7.652;2023-03-01T07:03:02;1.30;99.90
3752;DHT22;50827;47.014;7.652;2023-03-01T07:05:30;1.40;99.90
3752;DHT22;50827;47.014;7.652;2023-03-01T07:07:57;1.40;99.90
3752;DHT22;50827;47.014;7.652;2023-03-01T07:10:24;1.40;99.90
3752;DHT22;50827;47.014;7.652;2023-03-01T07:12:55;1.40;99.90
3752;DHT22;50827;47.014;7.652;2023-03-01T07:15:22;1.40;99.90
3752;DHT22;50827;47.014;7.652;2023-03-01T07:17:48;1.60;99.90
3752;DHT22;50827;47.014;7.652;2023-03-01T07:20:18;1.50;99.90
3752;DHT22;50827;47.014;7.652;2023-03-01T07:22:45;1.60;99.90
3752;DHT22;50827;47.014;7.652;2023-03-01T07:25:11;1.60;99.90
3752;DHT22;50827;47.014;7.652;2023-03-01T07:27:38;1.50;99.90
3752;DHT22;50827;47.014;7.652;2023-03-01T07:30:05;1.50;99.90
3752;DHT22;50827;47.014;7.652;2023-03-01T07:32:32;1.40;99.90
3752;DHT22;50827;47.014;7.652;2023-03-01T07:34:59;1.40;99.90
3752;DHT22;50827;47.014;7.652;2023-03-01T07:37:26;1.50;99.90
3752;DHT22;50827;47.014;7.652;2023-03-01T07:39:53;1.40;99.90
3752;DHT22;50827;47.014;7.652;2023-03-01T07:42:19;1.50;99.90
3752;DHT22;50827;47.014;7.652;2023-03-01T07:44:46;1.60;99.90
3752;DHT22;50827;47.014;7.652;2023-03-01T07:47:13;1.50;99.90
3752;DHT22;50827;47.014;7.652;2023-03-01T07:49:40;1.60;99.90
3752;DHT22;50827;47.014;7.652;2023-03-01T07:52:10;1.50;99.90
3752;DHT22;50827;47.014;7.652;2023-03-01T07:54:38;1.60;99.90
3752;DHT22;50827;47.014;7.652;2023-03-01T07:57:05;1.50;99.90
3752;DHT22;50827;47.014;7.652;2023-03-01T07:59:32;1.50;99.90
3752;DHT22;50827;47.014;7.652;2023-03-01T08:01:59;1.50;99.90
3752;DHT22;50827;47.014;7.652;2023-03-01T08:04:27;1.60;99.90
3752;DHT22;50827;47.014;7.652;2023-03-01T08:06:54;1.70;99.90
3752;DHT22;50827;47.014;7.652;2023-03-01T08:09:22;1.70;99.90
3752;DHT22;50827;47.014;7.652;2023-03-01T08:11:48;1.60;99.90
3752;DHT22;50827;47.014;7.652;2023-03-01T08:14:15;1.60;99.90
3752;DHT22;50827;47.014;7.652;2023-03-01T08:16:42;1.60;99.90
3752;DHT22;50827;47.014;7.652;2023-03-01T08:19:11;1.60;99.90
3752;DHT22;50827;47.014;7.652;2023-03-01T08:21:39;1.70;99.90
3752;DHT22;50827;47.014;7.652;2023-03-01T08:24:07;1.80;99.90
3752;DHT22;50827;47.014;7.652;2023-03-01T08:26:34;1.70;99.90
3752;DHT22;50827;47.014;7.652;2023-03-01T08:29:00;1.70;99.90
3752;DHT22;50827;47.014;7.652;2023-03-01T08:31:33;1.70;99.90
3752;DHT22;50827;47.014;7.652;2023-03-01T08:34:04;1.70;99.90
3752;DHT22;50827;47.014;7.652;2023-03-01T08:36:35;1.80;99.90
3752;DHT22;50827;47.014;7.652;2023-03-01T08:39:04;1.80;99.90
3752;DHT22;50827;47.014;7.652;2023-03-01T08:41:31;1.70;99.90
3752;DHT22;50827;47.014;7.652;2023-03-01T08:43:58;1.70;99.90
3752;DHT22;50827;47.014;7.652;2023-03-01T08:46:38;1.80;99.90
3752;DHT22;50827;47.014;7.652;2023-03-01T08:49:07;1.80;99.90
3752;DHT22;50827;47.014;7.652;2023-03-01T08:51:34;1.90;99.90
3752;DHT22;50827;47.014;7.652;2023-03-01T08:54:11;1.80;99.90
3752;DHT22;50827;47.014;7.652;2023-03-01T08:56:38;1.80;99.90
3752;DHT22;50827;47.014;7.652;2023-03-01T08:59:05;1.80;99.90
3752;DHT22;50827;47.014;7.652;2023-03-01T09:01:32;1.80;99.90
3752;DHT22;50827;47.014;7.652;2023-03-01T09:03:59;1.80;99.90
3752;DHT22;50827;47.014;7.652;2023-03-01T09:06:26;1.80;99.90
3752;DHT22;50827;47.014;7.652;2023-03-01T09:08:53;1.90;99.90
3752;DHT22;50827;47.014;7.652;2023-03-01T09:11:21;1.90;99.90
3752;DHT22;50827;47.014;7.652;2023-03-01T09:13:49;1.90;99.90
3752;DHT22;50827;47.014;7.652;2023-03-01T09:16:17;1.80;99.90
3752;DHT22;50827;47.014;7.652;2023-03-01T09:18:45;1.70;99.90
3752;DHT22;50827;47.014;7.652;2023-03-01T09:21:16;1.80;99.90
3752;DHT22;50827;47.014;7.652;2023-03-01T09:23:47;1.80;99.90
3752;DHT22;50827;47.014;7.652;2023-03-01T09:26:20;1.70;99.90
3752;DHT22;50827;47.014;7.652;2023-03-01T09:28:50;1.80;99.90
3752;DHT22;50827;47.014;7.652;2023-03-01T09:31:19;1.90;99.90
3752;DHT22;50827;47.014;7.652;2023-03-01T09:33:48;1.90;99.90
3752;DHT22;50827;47.014;7.652;2023-03-01T09:36:18;1.90;99.90
3752;DHT22;50827;47.014;7.652;2023-03-01T09:38:44;2.00;99.90
3752;DHT22;50827;47.014;7.652;2023-03-01T09:41:25;1.90;99.90
3752;DHT22;50827;47.014;7.652;2023-03-01T09:43:57;1.90;99.90
3752;DHT22;50827;47.014;7.652;2023-03-01T09:46:26;1.90;99.90
3752;DHT22;50827;47.014;7.652;2023-03-01T09:49:11;2.00;99.90
3752;DHT22;50827;47.014;7.652;2023-03-01T09:51:38;1.90;99.90
3752;DHT22;50827;47.014;7.652;2023-03-01T09:54:05;1.90;99.90
3752;DHT22;50827;47.014;7.652;2023-03-01T09:56:46;2.00;99.90
3752;DHT22;50827;47.014;7.652;2023-03-01T09:59:28;1.90;99.90
3752;DHT22;50827;47.014;7.652;2023-03-01T10:05:05;2.00;99.90
3752;DHT22;50827;47.014;7.652;2023-03-01T10:08:00;2.00;99.90
3752;DHT22;50827;47.014;7.652;2023-03-01T10:10:37;2.10;99.90
3752;DHT22;50827;47.014;7.652;2023-03-01T10:13:21;2.00;99.90
3752;DHT22;50827;47.014;7.652;2023-03-01T10:15:56;2.00;99.90
3752;DHT22;50827;47.014;7.652;2023-03-01T10:18:28;2.00;99.90
3752;DHT22;50827;47.014;7.652;2023-03-01T10:21:12;2.00;99.90
3752;DHT22;50827;47.014;7.652;2023-03-01T10:23:41;2.00;99.90
3752;DHT22;50827;47.014;7.652;2023-03-01T10:31:25;1.90;99.90
3752;DHT22;50827;47.014;7.652;2023-03-01T10:33:56;2.00;99.90
3752;DHT22;50827;47.014;7.652;2023-03-01T10:36:23;2.00;99.90
3752;DHT22;50827;47.014;7.652;2023-03-01T10:38:56;2.00;99.90
3752;DHT22;50827;47.014;7.652;2023-03-01T10:41:25;2.10;99.90
3752;DHT22;50827;47.014;7.652;2023-03-01T10:43:57;2.10;99.90
3752;DHT22;50827;47.014;7.652;2023-03-01T10:46:35;2.20;99.90
3752;DHT22;50827;47.014;7.652;2023-03-01T10:49:23;2.20;99.90
3752;DHT22;50827;47.014;7.652;2023-03-01T10:51:53;2.30;99.90
3752;DHT22;50827;47.014;7.652;2023-03-01T10:54:29;2.30;99.90
3752;DHT22;50827;47.014;7.652;2023-03-01T10:57:05;2.40;99.90
3752;DHT22;50827;47.014;7.652;2023-03-01T10:59:34;2.40;99.90
3752;DHT22;50827;47.014;7.652;2023-03-01T11:02:17;2.40;99.90
3752;DHT22;50827;47.014;7.652;2023-03-01T11:10:30;2.40;99.90
3752;DHT22;50827;47.014;7.652;2023-03-01T11:13:19;2.30;99.90
3752;DHT22;50827;47.014;7.652;2023-03-01T11:16:06;2.30;99.90
3752;DHT22;50827;47.014;7.652;2023-03-01T11:18:34;2.20;99.90
3752;DHT22;50827;47.014;7.652;2023-03-01T11:21:13;2.20;99.90
3752;DHT22;50827;47.014;7.652;2023-03-01T11:23:43;2.20;99.90
3752;DHT22;50827;47.014;7.652;2023-03-01T11:26:13;2.20;99.90
3752;DHT22;50827;47.014;7.652;2023-03-01T11:28:42;2.30;99.90
3752;DHT22;50827;47.014;7.652;2023-03-01T11:31:11;2.30;99.90
3752;DHT22;50827;47.014;7.652;2023-03-01T11:34:04;2.30;99.90
3752;DHT22;50827;47.014;7.652;2023-03-01T11:36:49;2.40;99.90
3752;DHT22;50827;47.014;7.652;2023-03-01T11:44:49;2.50;99.90
3752;DHT22;50827;47.014;7.652;2023-03-01T11:47:29;2.60;99.90
3752;DHT22;50827;47.014;7.652;2023-03-01T11:50:02;2.60;99.90
3752;DHT22;50827;47.014;7.652;2023-03-01T11:55:30;2.70;99.90
3752;DHT22;50827;47.014;7.652;2023-03-01T12:02:01;2.70;99.90
3752;DHT22;50827;47.014;7.652;2023-03-01T12:07:01;2.80;99.90
3752;DHT22;50827;47.014;7.652;2023-03-01T12:12:27;2.60;99.90
3752;DHT22;50827;47.014;7.652;2023-03-01T12:15:17;2.60;99.90
3752;DHT22;50827;47.014;7.652;2023-03-01T12:18:06;2.60;99.90
3752;DHT22;50827;47.014;7.652;2023-03-01T12:23:29;2.70;99.90
3752;DHT22;50827;47.014;7.652;2023-03-01T12:29:30;2.80;99.90
3752;DHT22;50827;47.014;7.652;2023-03-01T12:32:30;2.80;99.90
3752;DHT22;50827;47.014;7.652;2023-03-01T12:46:07;2.70;99.90
3752;DHT22;50827;47.014;7.652;2023-03-01T12:51:11;2.70;99.90
3752;DHT22;50827;47.014;7.652;2023-03-01T12:53:50;2.70;99.90
3752;DHT22;50827;47.014;7.652;2023-03-01T12:56:23;2.80;99.90
3752;DHT22;50827;47.014;7.652;2023-03-01T13:01:49;2.80;99.90
3752;DHT22;50827;47.014;7.652;2023-03-01T13:17:53;2.80;99.90
3752;DHT22;50827;47.014;7.652;2023-03-01T13:26:17;2.70;99.90
3752;DHT22;50827;47.014;7.652;2023-03-01T13:34:02;2.90;99.90
3752;DHT22;50827;47.014;7.652;2023-03-01T13:39:13;2.90;99.90
3752;DHT22;50827;47.014;7.652;2023-03-01T13:41:54;2.90;99.90
3752;DHT22;50827;47.014;7.652;2023-03-01T13:44:32;2.90;99.90
3752;DHT22;50827;47.014;7.652;2023-03-01T13:49:57;2.90;99.90
3752;DHT22;50827;47.014;7.652;2023-03-01T13:52:43;2.90;99.90
3752;DHT22;50827;47.014;7.652;2023-03-01T13:55:41;2.80;99.90
3752;DHT22;50827;47.014;7.652;2023-03-01T14:00:41;2.90;99.90
3752;DHT22;50827;47.014;7.652;2023-03-01T14:03:19;2.90;99.90
3752;DHT22;50827;47.014;7.652;2023-03-01T14:06:08;2.90;99.90
3752;DHT22;50827;47.014;7.652;2023-03-01T14:08:48;2.90;99.90
3752;DHT22;50827;47.014;7.652;2023-03-01T14:19:56;2.90;99.90
3752;DHT22;50827;47.014;7.652;2023-03-01T14:22:29;3.00;99.90
3752;DHT22;50827;47.014;7.652;2023-03-01T14:25:02;2.90;99.90
3752;DHT22;50827;47.014;7.652;2023-03-01T14:27:35;2.80;99.90
3752;DHT22;50827;47.014;7.652;2023-03-01T14:30:23;2.80;99.90
3752;DHT22;50827;47.014;7.652;2023-03-01T14:32:56;2.90;99.90
3752;DHT22;50827;47.014;7.652;2023-03-01T14:35:27;2.90;99.90
3752;DHT22;50827;47.014;7.652;2023-03-01T14:37:54;2.90;99.90
3752;DHT22;50827;47.014;7.652;2023-03-01T14:40:32;2.90;99.90
3752;DHT22;50827;47.014;7.652;2023-03-01T14:43:01;2.90;99.90
3752;DHT22;50827;47.014;7.652;2023-03-01T14:45:29;2.90;99.90
3752;DHT22;50827;47.014;7.652;2023-03-01T14:48:00;2.80;99.90
3752;DHT22;50827;47.014;7.652;2023-03-01T14:50:33;3.00;99.90
3752;DHT22;50827;47.014;7.652;2023-03-01T14:53:04;3.10;99.90
3752;DHT22;50827;47.014;7.652;2023-03-01T14:55:37;3.20;99.90
3752;DHT22;50827;47.014;7.652;2023-03-01T14:58:12;3.30;99.90
3752;DHT22;50827;47.014;7.652;2023-03-01T15:00:48;3.30;99.90
3752;DHT22;50827;47.014;7.652;2023-03-01T15:03:33;3.20;99.90
3752;DHT22;50827;47.014;7.652;2023-03-01T15:06:02;3.00;99.90
3752;DHT22;50827;47.014;7.652;2023-03-01T15:08:31;3.00;99.90
3752;DHT22;50827;47.014;7.652;2023-03-01T15:13:35;3.00;99.90
3752;DHT22;50827;47.014;7.652;2023-03-01T15:16:08;3.00;99.90
3752;DHT22;50827;47.014;7.652;2023-03-01T15:18:36;3.00;99.90
3752;DHT22;50827;47.014;7.652;2023-03-01T15:21:31;3.00;99.90
3752;DHT22;50827;47.014;7.652;2023-03-01T15:27:00;3.00;99.90
3752;DHT22;50827;47.014;7.652;2023-03-01T15:29:34;2.90;99.90
3752;DHT22;50827;47.014;7.652;2023-03-01T15:32:31;2.90;99.90
3752;DHT22;50827;47.014;7.652;2023-03-01T15:34:59;3.00;99.90
3752;DHT22;50827;47.014;7.652;2023-03-01T15:37:47;2.90;99.90
3752;DHT22;50827;47.014;7.652;2023-03-01T15:40:20;2.90;99.90
3752;DHT22;50827;47.014;7.652;2023-03-01T15:42:50;2.90;99.90
3752;DHT22;50827;47.014;7.652;2023-03-01T15:45:23;2.90;99.90
3752;DHT22;50827;47.014;7.652;2023-03-01T15:50:57;2.80;99.90
3752;DHT22;50827;47.014;7.652;2023-03-01T15:53:26;2.80;99.90
3752;DHT22;50827;47.014;7.652;2023-03-01T15:55:55;2.70;99.90
3752;DHT22;50827;47.014;7.652;2023-03-01T15:58:25;2.60;99.90
3752;DHT22;50827;47.014;7.652;2023-03-01T16:00:52;2.60;99.90
3752;DHT22;50827;47.014;7.652;2023-03-01T16:03:27;2.70;99.90
3752;DHT22;50827;47.014;7.652;2023-03-01T16:05:54;2.70;99.90
3752;DHT22;50827;47.014;7.652;2023-03-01T16:08:21;2.70;99.90
3752;DHT22;50827;47.014;7.652;2023-03-01T16:10:48;2.70;99.90
3752;DHT22;50827;47.014;7.652;2023-03-01T16:13:17;2.60;99.90
3752;DHT22;50827;47.014;7.652;2023-03-01T16:15:44;2.60;99.90
3752;DHT22;50827;47.014;7.652;2023-03-01T16:18:11;2.60;99.90
3752;DHT22;50827;47.014;7.652;2023-03-01T16:20:38;2.70;99.90
3752;DHT22;50827;47.014;7.652;2023-03-01T16:23:07;2.60;99.90
3752;DHT22;50827;47.014;7.652;2023-03-01T16:25:35;2.60;99.90
3752;DHT22;50827;47.014;7.652;2023-03-01T16:28:03;2.60;99.90
3752;DHT22;50827;47.014;7.652;2023-03-01T16:30:36;2.60;99.90
3752;DHT22;50827;47.014;7.652;2023-03-01T16:33:03;2.70;99.90
3752;DHT22;50827;47.014;7.652;2023-03-01T16:35:50;2.60;99.90
3752;DHT22;50827;47.014;7.652;2023-03-01T16:38:17;2.60;99.90
3752;DHT22;50827;47.014;7.652;2023-03-01T16:40:48;3.30;99.90
3752;DHT22;50827;47.014;7.652;2023-03-01T16:43:17;3.10;99.90
3752;DHT22;50827;47.014;7.652;2023-03-01T16:45:44;3.00;99.90
3752;DHT22;50827;47.014;7.652;2023-03-01T16:48:12;2.90;99.90
3752;DHT22;50827;47.014;7.652;2023-03-01T16:50:39;2.80;99.90
3752;DHT22;50827;47.014;7.652;2023-03-01T16:53:05;2.80;99.90
3752;DHT22;50827;47.014;7.652;2023-03-01T16:55:32;2.70;99.90
3752;DHT22;50827;47.014;7.652;2023-03-01T16:58:00;2.70;99.90
3752;DHT22;50827;47.014;7.652;2023-03-01T17:00:27;2.70;99.90
3752;DHT22;50827;47.014;7.652;2023-03-01T17:02:54;2.70;99.90
3752;DHT22;50827;47.014;7.652;2023-03-01T17:05:21;2.70;99.90
3752;DHT22;50827;47.014;7.652;2023-03-01T17:07:50;2.80;99.90
3752;DHT22;50827;47.014;7.652;2023-03-01T17:10:17;2.80;99.90
3752;DHT22;50827;47.014;7.652;2023-03-01T17:12:43;2.80;99.90
3752;DHT22;50827;47.014;7.652;2023-03-01T17:15:10;2.70;99.90
3752;DHT22;50827;47.014;7.652;2023-03-01T17:17:38;2.70;99.90
3752;DHT22;50827;47.014;7.652;2023-03-01T17:20:05;2.70;99.90
3752;DHT22;50827;47.014;7.652;2023-03-01T17:22:32;2.70;99.90
3752;DHT22;50827;47.014;7.652;2023-03-01T17:24:58;2.70;99.90
3752;DHT22;50827;47.014;7.652;2023-03-01T17:27:26;2.60;99.90
3752;DHT22;50827;47.014;7.652;2023-03-01T17:29:53;2.60;99.90
3752;DHT22;50827;47.014;7.652;2023-03-01T17:32:19;2.50;99.90
3752;DHT22;50827;47.014;7.652;2023-03-01T17:34:46;2.60;99.90
3752;DHT22;50827;47.014;7.652;2023-03-01T17:37:13;2.60;99.90
3752;DHT22;50827;47.014;7.652;2023-03-01T17:39:40;2.50;99.90
3752;DHT22;50827;47.014;7.652;2023-03-01T17:42:06;2.60;99.90
3752;DHT22;50827;47.014;7.652;2023-03-01T17:44:33;2.60;99.90
3752;DHT22;50827;47.014;7.652;2023-03-01T17:47:01;2.70;99.90
3752;DHT22;50827;47.014;7.652;2023-03-01T17:49:28;2.60;99.90
3752;DHT22;50827;47.014;7.652;2023-03-01T17:51:55;2.50;99.90
3752;DHT22;50827;47.014;7.652;2023-03-01T17:54:22;2.60;99.90
3752;DHT22;50827;47.014;7.652;2023-03-01T17:56:49;2.60;99.90
3752;DHT22;50827;47.014;7.652;2023-03-01T17:59:16;2.60;99.90
3752;DHT22;50827;47.014;7.652;2023-03-01T18:01:43;2.60;99.90
3752;DHT22;50827;47.014;7.652;2023-03-01T18:04:11;2.60;99.90
3752;DHT22;50827;47.014;7.652;2023-03-01T18:06:38;2.70;99.90
3752;DHT22;50827;47.014;7.652;2023-03-01T18:09:06;2.70;99.90
3752;DHT22;50827;47.014;7.652;2023-03-01T18:11:33;2.60;99.90
3752;DHT22;50827;47.014;7.652;2023-03-01T18:14:01;2.60;99.90